createdAt,value
2018-09-08T00:02:11.413Z,7.87
2018-09-08T00:04:39.650Z,7.70
2018-09-08T00:07:13.217Z,8.70
2018-09-08T00:09:41.473Z,8.57
2018-09-08T00:12:09.778Z,7.70
2018-09-08T00:14:37.197Z,8.17
2018-09-08T00:17:10.702Z,8.30
2018-09-08T00:19:44.365Z,8.20
2018-09-08T00:22:18.065Z,7.23
2018-09-08T00:24:51.653Z,7.77
2018-09-08T00:27:27.313Z,7.23
2018-09-08T00:29:55.629Z,7.87
2018-09-08T00:32:23.963Z,7.70
2018-09-08T00:34:52.311Z,7.40
2018-09-08T00:37:20.749Z,8.23
2018-09-08T00:39:50.915Z,7.57
2018-09-08T00:42:19.380Z,7.33
2018-09-08T00:44:47.756Z,8.13
2018-09-08T00:47:16.250Z,7.60
2018-09-08T00:49:44.561Z,7.50
2018-09-08T00:52:12.776Z,6.70
2018-09-08T00:54:41.071Z,7.57
2018-09-08T00:57:10.360Z,7.17
2018-09-08T00:59:38.612Z,7.97
2018-09-08T01:02:06.884Z,7.70
2018-09-08T01:04:37.286Z,7.90
2018-09-08T01:07:09.502Z,8.13
2018-09-08T01:09:37.856Z,7.53
2018-09-08T01:12:06.227Z,7.33
2018-09-08T01:14:34.514Z,7.93
2018-09-08T01:17:02.751Z,7.30
2018-09-08T01:19:31.024Z,7.87
2018-09-08T01:22:05.795Z,7.80
2018-09-08T01:24:34.075Z,7.73
2018-09-08T01:27:02.352Z,7.20
2018-09-08T01:29:30.662Z,7.00
2018-09-08T01:31:58.948Z,6.67
2018-09-08T01:34:27.209Z,7.07
2018-09-08T01:36:55.526Z,7.17
2018-09-08T01:39:23.833Z,7.17
2018-09-08T01:41:52.276Z,7.23
2018-09-08T01:44:20.566Z,8.17
2018-09-08T01:46:48.822Z,7.43
2018-09-08T01:49:17.072Z,7.80
2018-09-08T01:51:45.383Z,7.87
2018-09-08T01:54:13.620Z,7.47
2018-09-08T01:56:41.892Z,7.80
2018-09-08T01:59:10.150Z,7.87
2018-09-08T02:01:38.425Z,8.57
2018-09-08T02:04:06.693Z,8.90
2018-09-08T02:06:35.029Z,9.17
2018-09-08T02:09:03.352Z,8.10
2018-09-08T02:11:31.689Z,8.33
2018-09-08T02:13:59.922Z,8.27
2018-09-08T02:16:28.232Z,7.83
2018-09-08T02:18:56.552Z,8.43
2018-09-08T02:21:24.936Z,8.63
2018-09-08T02:23:53.291Z,8.37
2018-09-08T02:26:21.568Z,7.57
2018-09-08T02:28:49.836Z,7.70
2018-09-08T02:31:18.125Z,7.37
2018-09-08T02:33:46.413Z,7.17
2018-09-08T02:36:14.852Z,7.20
2018-09-08T02:38:43.156Z,7.10
2018-09-08T02:41:11.452Z,7.60
2018-09-08T02:43:39.718Z,7.30
2018-09-08T02:46:08.044Z,7.40
2018-09-08T02:48:36.281Z,7.40
2018-09-08T02:51:03.490Z,7.43
2018-09-08T02:53:30.682Z,7.00
2018-09-08T02:55:57.920Z,7.23
2018-09-08T02:58:25.095Z,6.53
2018-09-08T03:00:52.266Z,6.47
2018-09-08T03:03:19.469Z,7.20
2018-09-08T03:05:46.665Z,7.70
2018-09-08T03:08:13.852Z,7.77
2018-09-08T03:10:41.174Z,9.67
2018-09-08T03:13:08.354Z,9.13
2018-09-08T03:15:35.529Z,8.23
2018-09-08T03:18:02.747Z,8.47
2018-09-08T03:20:29.898Z,7.90
2018-09-08T03:22:57.121Z,8.47
2018-09-08T03:25:24.299Z,8.60
2018-09-08T03:27:51.515Z,8.30
2018-09-08T03:30:35.670Z,8.23
2018-09-08T03:33:02.954Z,7.53
2018-09-08T03:35:30.202Z,7.93
2018-09-08T03:37:57.397Z,8.63
2018-09-08T03:40:24.630Z,8.93
2018-09-08T03:42:51.818Z,8.43
2018-09-08T03:45:19.039Z,8.97
2018-09-08T03:47:46.396Z,8.90
2018-09-08T03:50:13.583Z,8.73
2018-09-08T03:52:40.862Z,8.27
2018-09-08T03:55:08.192Z,8.07
2018-09-08T03:57:35.510Z,7.70
2018-09-08T04:00:02.700Z,7.67
2018-09-08T04:02:30.743Z,7.77
2018-09-08T04:04:59.065Z,7.37
2018-09-08T04:07:27.383Z,7.50
2018-09-08T04:09:55.837Z,7.63
2018-09-08T04:12:24.264Z,7.30
2018-09-08T04:14:52.606Z,7.57
2018-09-08T04:17:20.970Z,7.93
2018-09-08T04:19:49.302Z,7.50
2018-09-08T04:22:21.759Z,8.33
2018-09-08T04:24:50.104Z,8.20
2018-09-08T04:27:18.407Z,8.30
2018-09-08T04:29:46.758Z,8.90
2018-09-08T04:32:15.122Z,8.07
2018-09-08T04:34:43.423Z,7.83
2018-09-08T04:37:11.806Z,8.33
2018-09-08T04:39:40.146Z,7.43
2018-09-08T04:42:08.434Z,7.90
2018-09-08T04:44:36.779Z,8.60
2018-09-08T04:47:05.207Z,8.70
2018-09-08T04:49:33.537Z,8.30
2018-09-08T04:52:02.040Z,9.47
2018-09-08T04:54:30.402Z,9.63
2018-09-08T04:56:59.506Z,9.27
2018-09-08T04:59:27.935Z,8.20
2018-09-08T05:01:56.293Z,8.97
2018-09-08T05:04:24.669Z,8.03
2018-09-08T05:06:53.065Z,8.07
2018-09-08T05:09:21.476Z,7.97
2018-09-08T05:11:49.785Z,8.40
2018-09-08T05:14:18.180Z,8.90
2018-09-08T05:16:46.504Z,8.00
2018-09-08T05:19:14.846Z,8.50
2018-09-08T05:21:43.182Z,8.13
2018-09-08T05:24:11.519Z,7.87
2018-09-08T05:26:39.921Z,7.87
2018-09-08T05:29:08.278Z,8.10
2018-09-08T05:31:36.785Z,7.27
2018-09-08T05:34:05.168Z,7.57
2018-09-08T05:36:33.505Z,7.50
2018-09-08T05:39:01.808Z,7.13
2018-09-08T05:41:30.146Z,7.80
2018-09-08T05:43:58.502Z,7.80
2018-09-08T05:46:26.850Z,7.50
2018-09-08T05:48:55.272Z,6.90
2018-09-08T05:51:23.535Z,7.07
2018-09-08T05:53:51.849Z,7.17
2018-09-08T05:56:20.182Z,7.30
2018-09-08T05:58:48.543Z,7.70
2018-09-08T06:01:17.168Z,7.13
2018-09-08T06:03:45.506Z,7.23
2018-09-08T06:06:13.860Z,6.90
2018-09-08T06:08:42.225Z,7.57
2018-09-08T06:11:10.547Z,7.10
2018-09-08T06:13:38.881Z,7.00
2018-09-08T06:16:07.189Z,6.30
2018-09-08T06:18:35.490Z,7.60
2018-09-08T06:21:03.791Z,6.43
2018-09-08T06:23:32.138Z,6.47
2018-09-08T06:26:00.598Z,6.83
2018-09-08T06:28:29.005Z,6.87
2018-09-08T06:30:57.326Z,6.67
2018-09-08T06:33:25.717Z,6.63
2018-09-08T06:35:53.997Z,6.40
2018-09-08T06:38:22.495Z,6.53
2018-09-08T06:40:52.681Z,6.20
2018-09-08T06:43:21.567Z,5.70
2018-09-08T06:45:50.671Z,6.73
2018-09-08T06:48:19.467Z,5.80
2018-09-08T06:50:47.886Z,5.60
2018-09-08T06:53:16.251Z,6.20
2018-09-08T06:55:44.794Z,5.43
2018-09-08T06:58:13.183Z,5.50
2018-09-08T07:00:48.505Z,5.13
2018-09-08T07:03:16.982Z,4.90
2018-09-08T07:05:45.702Z,4.93
2018-09-08T07:08:14.271Z,4.90
2018-09-08T07:10:43.187Z,5.23
2018-09-08T07:13:11.838Z,4.50
2018-09-08T07:15:40.779Z,4.30
2018-09-08T07:18:09.174Z,4.20
2018-09-08T07:20:38.098Z,4.90
2018-09-08T07:23:06.578Z,4.07
2018-09-08T07:25:35.092Z,4.20
2018-09-08T07:28:03.657Z,4.33
2018-09-08T07:30:32.238Z,4.20
2018-09-08T07:33:00.591Z,3.93
2018-09-08T07:35:29.182Z,3.97
2018-09-08T07:37:57.854Z,3.90
2018-09-08T07:40:26.382Z,4.10
2018-09-08T07:42:55.353Z,4.30
2018-09-08T07:45:23.919Z,4.00
2018-09-08T07:47:52.453Z,4.50
2018-09-08T07:50:21.072Z,4.70
2018-09-08T07:52:49.717Z,3.50
2018-09-08T07:55:18.398Z,3.83
2018-09-08T07:57:47.161Z,4.33
2018-09-08T08:00:16.503Z,3.40
2018-09-08T08:02:45.653Z,3.60
2018-09-08T08:05:14.356Z,3.90
2018-09-08T08:07:43.754Z,3.77
2018-09-08T08:10:12.233Z,3.87
2018-09-08T08:12:41.327Z,3.30
2018-09-08T08:15:10.018Z,3.30
2018-09-08T08:17:38.860Z,3.10
2018-09-08T08:20:07.773Z,3.30
2018-09-08T08:24:00.506Z,3.40
2018-09-08T08:26:29.178Z,3.10
2018-09-08T08:28:57.846Z,3.23
2018-09-08T08:31:26.617Z,3.17
2018-09-08T08:33:55.280Z,3.13
2018-09-08T08:36:23.997Z,3.33
2018-09-08T08:38:53.772Z,3.10
2018-09-08T08:41:22.715Z,3.00
2018-09-08T08:43:51.086Z,3.37
2018-09-08T08:46:20.564Z,3.00
2018-09-08T08:48:49.208Z,3.07
2018-09-08T08:51:28.978Z,3.23
2018-09-08T08:54:08.633Z,3.50
2018-09-08T08:56:37.088Z,2.93
2018-09-08T08:59:06.005Z,3.07
2018-09-08T09:01:34.360Z,3.30
2018-09-08T09:04:02.775Z,3.10
2018-09-08T09:06:32.440Z,3.40
2018-09-08T09:09:00.762Z,2.83
2018-09-08T09:11:29.263Z,2.70
2018-09-08T09:13:57.743Z,2.90
2018-09-08T09:16:26.150Z,2.47
2018-09-08T09:19:05.862Z,2.63
2018-09-08T09:21:45.904Z,2.60
2018-09-08T09:24:26.267Z,3.00
2018-09-08T09:26:54.675Z,3.00
2018-09-08T09:29:23.224Z,3.53
2018-09-08T09:31:51.576Z,2.83
2018-09-08T09:34:20.213Z,4.97
2018-09-08T09:36:48.906Z,2.77
2018-09-08T09:39:17.323Z,2.20
2018-09-08T09:41:45.964Z,2.80
2018-09-08T09:44:15.195Z,2.93
2018-09-08T09:46:43.734Z,2.80
2018-09-08T09:49:12.030Z,2.70
2018-09-08T09:51:40.664Z,2.50
2018-09-08T09:54:08.973Z,2.40
2018-09-08T09:56:37.473Z,2.67
2018-09-08T09:59:05.980Z,2.13
2018-09-08T10:01:39.410Z,2.73
2018-09-08T10:04:07.810Z,2.00
2018-09-08T10:06:36.461Z,2.57
2018-09-08T10:09:06.787Z,2.47
2018-09-08T10:11:35.339Z,2.30
2018-09-08T10:14:03.631Z,2.20
2018-09-08T10:16:31.993Z,1.97
2018-09-08T10:19:00.439Z,2.23
2018-09-08T10:21:29.314Z,1.90
2018-09-08T10:24:05.149Z,2.27
2018-09-08T10:26:25.975Z,2.20
2018-09-08T10:28:54.374Z,2.03
2018-09-08T10:31:22.836Z,2.30
2018-09-08T10:33:51.148Z,2.43
2018-09-08T10:36:19.598Z,2.00
2018-09-08T10:38:48.409Z,2.23
2018-09-08T10:41:18.260Z,2.10
2018-09-08T10:43:47.208Z,2.30
2018-09-08T10:46:15.530Z,2.00
2018-09-08T10:48:43.838Z,1.90
2018-09-08T10:52:25.616Z,2.33
2018-09-08T10:54:55.194Z,2.03
2018-09-08T10:57:23.678Z,1.90
2018-09-08T10:59:52.031Z,1.80
2018-09-08T11:02:21.321Z,1.97
2018-09-08T11:04:49.314Z,1.90
2018-09-08T11:07:17.690Z,1.80
2018-09-08T11:09:46.074Z,1.70
2018-09-08T11:12:14.407Z,1.80
2018-09-08T11:14:42.973Z,1.80
2018-09-08T11:17:11.299Z,1.70
2018-09-08T11:19:39.855Z,1.70
2018-09-08T11:22:08.367Z,1.70
2018-09-08T11:24:38.246Z,1.60
2018-09-08T11:27:08.028Z,1.43
2018-09-08T11:29:36.431Z,1.60
2018-09-08T11:32:04.756Z,1.80
2018-09-08T11:34:33.185Z,1.60
2018-09-08T11:37:01.722Z,1.97
2018-09-08T11:39:30.362Z,1.80
2018-09-08T11:41:58.707Z,1.60
2018-09-08T11:44:27.305Z,1.70
2018-09-08T11:46:55.593Z,1.50
2018-09-08T11:49:23.913Z,1.50
2018-09-08T11:51:52.479Z,1.40
2018-09-08T11:54:20.821Z,1.50
2018-09-08T11:56:49.217Z,1.43
2018-09-08T11:59:17.606Z,1.60
2018-09-08T12:01:45.917Z,1.60
2018-09-08T12:04:14.627Z,1.40
2018-09-08T12:06:43.129Z,1.50
2018-09-08T12:09:12.586Z,1.60
2018-09-08T12:11:40.929Z,1.60
2018-09-08T12:14:10.365Z,1.40
2018-09-08T12:16:38.971Z,1.50
2018-09-08T12:19:07.367Z,1.30
2018-09-08T12:21:35.815Z,1.55
2018-09-08T12:24:05.258Z,1.50
2018-09-08T12:26:33.690Z,1.70
2018-09-08T12:29:02.480Z,1.40
2018-09-08T12:31:31.034Z,1.47
2018-09-08T12:34:00.330Z,1.70
2018-09-08T12:36:29.774Z,1.50
2018-09-08T12:38:58.665Z,1.80
2018-09-08T12:41:27.238Z,1.30
2018-09-08T12:43:55.819Z,1.60
2018-09-08T12:46:26.600Z,1.40
2018-09-08T12:49:04.068Z,1.30
2018-09-08T12:51:32.554Z,1.80
2018-09-08T12:54:01.368Z,1.80
2018-09-08T12:56:30.719Z,1.47
2018-09-08T12:59:00.363Z,1.70
2018-09-08T13:01:28.887Z,1.37
2018-09-08T13:03:57.928Z,1.47
2018-09-08T13:06:27.450Z,1.60
2018-09-08T13:08:55.855Z,1.60
2018-09-08T13:11:24.287Z,1.93
2018-09-08T13:13:52.870Z,1.70
2018-09-08T13:16:21.406Z,1.90
2018-09-08T13:18:50.382Z,1.83
2018-09-08T13:21:18.923Z,1.35
2018-09-08T13:23:50.310Z,1.40
2018-09-08T13:26:18.758Z,1.60
2018-09-08T13:28:47.474Z,1.40
2018-09-08T13:31:15.874Z,1.50
2018-09-08T13:33:44.494Z,1.50
2018-09-08T13:36:13.174Z,1.30
2018-09-08T13:38:41.461Z,1.77
2018-09-08T13:41:09.791Z,1.40
2018-09-08T13:43:38.118Z,1.37
2018-09-08T13:46:06.427Z,1.57
2018-09-08T13:48:34.859Z,1.50
2018-09-08T13:51:03.240Z,1.70
2018-09-08T13:53:31.998Z,1.70
2018-09-08T13:56:00.364Z,1.77
2018-09-08T13:58:28.686Z,1.57
2018-09-08T14:00:56.976Z,1.80
2018-09-08T14:03:25.372Z,1.77
2018-09-08T14:05:53.794Z,1.55
2018-09-08T14:08:22.100Z,1.45
2018-09-08T14:10:50.527Z,1.70
2018-09-08T14:13:19.316Z,1.55
2018-09-08T14:15:47.762Z,1.62
2018-09-08T14:18:16.138Z,1.70
2018-09-08T14:20:44.464Z,1.70
2018-09-08T14:23:13.003Z,1.60
2018-09-08T14:25:41.733Z,1.60
2018-09-08T14:28:10.082Z,1.67
2018-09-08T14:30:39.443Z,1.60
2018-09-08T14:33:07.748Z,1.75
2018-09-08T14:35:37.018Z,1.52
2018-09-08T14:38:05.491Z,1.40
2018-09-08T14:40:33.795Z,1.87
2018-09-08T14:43:02.119Z,1.60
2018-09-08T14:45:30.478Z,1.70
2018-09-08T14:47:58.755Z,1.67
2018-09-08T14:50:27.094Z,2.10
2018-09-08T14:52:55.477Z,1.72
2018-09-08T14:55:24.072Z,1.75
2018-09-08T14:57:52.691Z,1.67
2018-09-08T15:00:21.071Z,1.60
2018-09-08T15:02:49.675Z,1.60
2018-09-08T15:05:17.983Z,1.40
2018-09-08T15:07:46.250Z,1.50
2018-09-08T15:10:14.598Z,1.60
2018-09-08T15:12:44.264Z,1.50
2018-09-08T15:15:12.589Z,1.80
2018-09-08T15:17:41.896Z,1.82
2018-09-08T15:20:10.284Z,1.60
2018-09-08T15:22:38.679Z,1.65
2018-09-08T15:25:07.088Z,1.70
2018-09-08T15:27:35.536Z,1.50
2018-09-08T15:30:03.858Z,1.50
2018-09-08T15:32:32.187Z,1.60
2018-09-08T15:35:00.477Z,1.75
2018-09-08T15:37:28.988Z,1.67
2018-09-08T15:39:57.323Z,1.60
2018-09-08T15:42:25.634Z,1.85
2018-09-08T15:44:53.921Z,1.80
2018-09-08T15:47:22.402Z,1.70
2018-09-08T15:49:50.893Z,1.95
2018-09-08T15:52:19.202Z,1.65
2018-09-08T15:54:47.641Z,1.60
2018-09-08T15:57:16.106Z,1.80
2018-09-08T15:59:44.449Z,1.50
2018-09-08T16:02:12.960Z,1.30
2018-09-08T16:04:41.244Z,1.60
2018-09-08T16:07:09.561Z,1.72
2018-09-08T16:09:37.835Z,1.70
2018-09-08T16:12:06.177Z,1.52
2018-09-08T16:14:34.511Z,1.52
2018-09-08T16:17:03.053Z,1.70
2018-09-08T16:19:31.742Z,1.90
2018-09-08T16:22:00.213Z,2.15
2018-09-08T16:24:28.563Z,2.95
2018-09-08T16:26:57.950Z,5.55
2018-09-08T16:29:26.283Z,3.17
2018-09-08T16:31:55.011Z,2.40
2018-09-08T16:34:23.295Z,18.65
2018-09-08T16:36:51.856Z,9.38
2018-09-08T16:39:20.208Z,10.48
2018-09-08T16:41:48.583Z,7.35
2018-09-08T16:44:16.930Z,4.08
2018-09-08T16:46:45.242Z,4.10
2018-09-08T16:49:13.626Z,2.87
2018-09-08T16:51:41.990Z,3.77
2018-09-08T16:54:10.422Z,2.40
2018-09-08T16:56:38.837Z,2.10
2018-09-08T16:59:07.324Z,2.90
2018-09-08T17:01:35.638Z,2.77
2018-09-08T17:04:04.038Z,2.00
2018-09-08T17:06:32.381Z,2.40
2018-09-08T17:09:00.738Z,2.45
2018-09-08T17:11:29.221Z,3.22
2018-09-08T17:13:57.733Z,2.53
2018-09-08T17:16:26.340Z,2.40
2018-09-08T17:18:54.791Z,3.40
2018-09-08T17:21:23.320Z,2.12
2018-09-08T17:23:52.116Z,2.10
2018-09-08T17:26:21.133Z,1.70
2018-09-08T17:28:49.965Z,2.17
2018-09-08T17:31:18.447Z,1.53
2018-09-08T17:33:46.969Z,2.00
2018-09-08T17:36:15.501Z,1.90
2018-09-08T17:38:44.090Z,1.50
2018-09-08T17:41:12.531Z,1.63
2018-09-08T17:43:41.168Z,1.60
2018-09-08T17:46:09.655Z,1.60
2018-09-08T17:48:38.124Z,1.93
2018-09-08T17:51:06.922Z,1.77
2018-09-08T17:53:35.613Z,2.03
2018-09-08T17:56:04.260Z,1.70
2018-09-08T17:58:32.910Z,1.90
2018-09-08T18:01:01.463Z,2.10
2018-09-08T18:03:30.039Z,2.07
2018-09-08T18:05:58.690Z,1.80
2018-09-08T18:08:27.793Z,2.00
2018-09-08T18:10:56.812Z,1.90
2018-09-08T18:13:26.312Z,2.17
2018-09-08T18:15:54.970Z,1.73
2018-09-08T18:18:23.853Z,2.33
2018-09-08T18:20:52.818Z,1.93
2018-09-08T18:23:21.542Z,1.90
2018-09-08T18:25:50.147Z,1.70
2018-09-08T18:28:18.592Z,1.90
2018-09-08T18:30:47.004Z,2.00
2018-09-08T18:33:15.687Z,1.50
2018-09-08T18:35:44.261Z,2.17
2018-09-08T18:38:12.794Z,1.80
2018-09-08T18:40:41.397Z,2.10
2018-09-08T18:43:09.951Z,2.00
2018-09-08T18:45:38.460Z,2.13
2018-09-08T18:48:07.263Z,2.10
2018-09-08T18:50:35.769Z,1.90
2018-09-08T18:53:05.153Z,3.10
2018-09-08T18:55:33.675Z,2.40
2018-09-08T18:58:02.133Z,2.20
2018-09-08T19:00:31.135Z,2.20
2018-09-08T19:03:00.037Z,1.80
2018-09-08T19:05:29.481Z,1.93
2018-09-08T19:07:58.458Z,1.90
2018-09-08T19:10:26.945Z,2.03
2018-09-08T19:12:55.474Z,2.57
2018-09-08T19:15:23.994Z,2.83
2018-09-08T19:17:52.473Z,3.67
2018-09-08T19:20:26.341Z,2.27
2018-09-08T19:22:54.935Z,2.10
2018-09-08T19:25:23.641Z,2.23
2018-09-08T19:27:52.101Z,2.33
2018-09-08T19:30:20.953Z,2.00
2018-09-08T19:32:49.419Z,2.70
2018-09-08T19:35:23.385Z,2.20
2018-09-08T19:37:51.859Z,3.03
2018-09-08T19:40:25.592Z,2.20
2018-09-08T19:42:54.367Z,1.90
2018-09-08T19:45:22.944Z,2.00
2018-09-08T19:47:56.879Z,2.10
2018-09-08T19:50:25.640Z,3.47
2018-09-08T19:52:59.350Z,4.80
2018-09-08T19:55:27.812Z,3.40
2018-09-08T19:58:01.780Z,3.10
2018-09-08T20:00:30.178Z,3.33
2018-09-08T20:02:58.554Z,3.27
2018-09-08T20:05:27.367Z,2.90
2018-09-08T20:07:56.700Z,2.37
2018-09-08T20:10:25.850Z,2.13
2018-09-08T20:12:54.802Z,2.40
2018-09-08T20:15:23.777Z,2.13
2018-09-08T20:17:52.465Z,2.00
2018-09-08T20:20:21.034Z,2.23
2018-09-08T20:22:49.688Z,2.10
2018-09-08T20:25:18.294Z,2.50
2018-09-08T20:27:47.690Z,2.47
2018-09-08T20:30:31.592Z,2.23
2018-09-08T20:33:00.259Z,2.20
2018-09-08T20:35:28.619Z,2.13
2018-09-08T20:37:56.943Z,2.20
2018-09-08T20:40:25.534Z,2.53
2018-09-08T20:42:54.171Z,2.40
2018-09-08T20:45:22.763Z,2.40
2018-09-08T20:47:51.332Z,2.50
2018-09-08T20:50:19.918Z,2.40
2018-09-08T20:52:48.345Z,2.20
2018-09-08T20:55:16.803Z,3.07
2018-09-08T20:57:45.261Z,2.03
2018-09-08T21:00:13.738Z,2.17
2018-09-08T21:02:42.321Z,2.30
2018-09-08T21:05:10.937Z,2.47
2018-09-08T21:07:39.402Z,2.30
2018-09-08T21:10:07.979Z,2.30
2018-09-08T21:12:36.535Z,2.77
2018-09-08T21:15:05.326Z,2.17
2018-09-08T21:17:33.771Z,2.20
2018-09-08T21:20:02.308Z,2.57
2018-09-08T21:22:37.135Z,2.90
2018-09-08T21:26:34.926Z,2.57
2018-09-08T21:29:03.353Z,2.60
2018-09-08T21:31:31.831Z,2.70
2018-09-08T21:34:00.336Z,2.93
2018-09-08T21:36:28.822Z,2.70
2018-09-08T21:38:57.523Z,2.83
2018-09-08T21:41:26.112Z,3.10
2018-09-08T21:43:54.601Z,3.03
2018-09-08T21:46:23.133Z,2.93
2018-09-08T21:48:51.599Z,3.37
2018-09-08T21:51:20.041Z,2.60
2018-09-08T21:53:48.649Z,4.93
2018-09-08T21:56:17.178Z,5.50
2018-09-08T21:58:45.702Z,4.73
2018-09-08T22:01:19.567Z,4.13
2018-09-08T22:03:47.968Z,5.63
2018-09-08T22:06:16.350Z,5.60
2018-09-08T22:08:44.685Z,6.73
2018-09-08T22:11:13.086Z,8.23
2018-09-08T22:13:41.425Z,5.00
2018-09-08T22:16:09.816Z,4.80
2018-09-08T22:18:38.154Z,4.20
2018-09-08T22:21:06.522Z,3.50
2018-09-08T22:23:35.064Z,3.60
2018-09-08T22:26:03.440Z,5.60
2018-09-08T22:28:31.833Z,5.93
2018-09-08T22:31:00.418Z,5.73
2018-09-08T22:33:28.797Z,6.30
2018-09-08T22:35:57.204Z,7.60
2018-09-08T22:38:25.500Z,5.30
2018-09-08T22:40:53.851Z,5.20
2018-09-08T22:43:22.225Z,4.90
2018-09-08T22:45:50.814Z,4.40
2018-09-08T22:48:19.184Z,4.97
2018-09-08T22:50:47.520Z,6.00
2018-09-08T22:53:15.881Z,5.07
2018-09-08T22:55:44.265Z,5.47
2018-09-08T22:58:12.635Z,5.43
2018-09-08T23:00:41.135Z,5.60
2018-09-08T23:03:09.571Z,6.10
2018-09-08T23:05:37.946Z,5.03
2018-09-08T23:08:06.360Z,4.10
2018-09-08T23:10:34.696Z,5.17
2018-09-08T23:13:03.144Z,5.43
2018-09-08T23:15:31.664Z,4.70
2018-09-08T23:18:00.055Z,5.37
2018-09-08T23:20:28.578Z,4.77
2018-09-08T23:23:03.795Z,5.20
2018-09-08T23:25:32.192Z,5.70
2018-09-08T23:28:00.527Z,5.07
2018-09-08T23:30:28.979Z,5.07
2018-09-08T23:32:57.409Z,4.83
2018-09-08T23:35:25.775Z,5.30
2018-09-08T23:37:54.075Z,5.20
2018-09-08T23:40:22.471Z,4.83
2018-09-08T23:42:51.051Z,5.00
2018-09-08T23:45:19.440Z,4.77
2018-09-08T23:47:47.947Z,4.90
2018-09-08T23:50:16.298Z,4.37
2018-09-08T23:52:44.623Z,4.93
2018-09-08T23:55:12.970Z,5.20
2018-09-08T23:57:41.293Z,4.50
